Terminal Aerodrome Forecast
Issued by NWS Charleston, WV

Current Version | Previous Version | Text Only | Print | Product List | Glossary On
Versions: 1 2 3 4 5 6 7 8 9 10 11 12 13 14 15 16 17 18 19 20 21 22 23 24 25 26 27
000
FTUS41 KRLX 182300
TAFCRW
TAF
KCRW 182334Z 1900/1924 VRB03KT 6SM BR SCT025 BKN040
      TEMPO 1900/1901 4SM -SHRA BKN020
     FM190200 VRB03KT 4SM BR SCT001 BKN040
      TEMPO 1902/1904 2SM BR SCT001
     FM190400 00000KT 2SM BR BKN001
     FM190600 00000KT 1/2SM FG BKN001
     FM191300 VRB03KT 4SM BR BKN010
     FM191500 21003KT 6SM HZ SCT020
     FM191800 25004KT 6SM HZ BKN035=

USA.gov is the U.S. government's official web portal to all federal, state and local government web resources and services.